createdAt,value
2023-04-09T00:02:25.524Z,8.72
2023-04-09T00:04:52.814Z,8.69
2023-04-09T00:07:19.758Z,8.69
2023-04-09T00:09:46.736Z,8.65
2023-04-09T00:12:13.778Z,8.64
2023-04-09T00:14:40.747Z,8.63
2023-04-09T00:17:07.972Z,8.58
2023-04-09T00:19:34.867Z,8.54
2023-04-09T00:22:02.313Z,8.52
2023-04-09T00:24:29.221Z,8.46
2023-04-09T00:26:56.458Z,8.48
2023-04-09T00:29:23.759Z,8.47
2023-04-09T00:31:50.664Z,8.45
2023-04-09T00:34:17.542Z,8.48
2023-04-09T00:36:44.459Z,8.46
2023-04-09T00:39:11.368Z,8.41
2023-04-09T00:41:38.462Z,8.43
2023-04-09T00:44:05.381Z,8.39
2023-04-09T00:46:33.005Z,8.39
2023-04-09T00:49:00.278Z,8.41
2023-04-09T00:51:27.243Z,8.35
2023-04-09T00:53:55.955Z,8.38
2023-04-09T00:56:24.761Z,8.38
2023-04-09T00:58:52.358Z,8.40
2023-04-09T01:01:19.541Z,8.42
2023-04-09T01:03:46.792Z,8.42
2023-04-09T01:06:54.262Z,8.40
2023-04-09T01:09:37.552Z,8.42
2023-04-09T01:12:55.715Z,8.44
2023-04-09T01:15:30.650Z,8.44
2023-04-09T01:18:08.156Z,8.44
2023-04-09T01:20:54.942Z,8.40
2023-04-09T01:23:55.073Z,8.43
2023-04-09T01:27:00.023Z,8.44
2023-04-09T01:29:33.309Z,8.36
2023-04-09T01:32:02.925Z,8.38
2023-04-09T01:34:31.089Z,8.30
2023-04-09T01:37:01.381Z,8.32
2023-04-09T01:39:29.544Z,8.26
2023-04-09T01:41:58.334Z,8.24
2023-04-09T01:44:26.790Z,8.20
2023-04-09T01:46:55.555Z,8.14
2023-04-09T01:49:23.072Z,8.13
2023-04-09T01:51:51.050Z,8.06
2023-04-09T01:54:17.944Z,8.02
2023-04-09T01:56:47.021Z,7.92
2023-04-09T01:59:14.736Z,7.92
2023-04-09T02:01:59.384Z,7.86
2023-04-09T02:04:36.540Z,7.79
2023-04-09T02:07:37.892Z,7.71
2023-04-09T02:10:07.503Z,7.68
2023-04-09T02:12:38.120Z,7.62
2023-04-09T02:15:07.641Z,7.58
2023-04-09T02:17:34.766Z,7.53
2023-04-09T02:20:01.675Z,7.49
2023-04-09T02:22:28.879Z,7.43
2023-04-09T02:24:56.007Z,7.41
2023-04-09T02:27:23.256Z,7.33
2023-04-09T02:29:51.031Z,7.34
2023-04-09T02:32:17.975Z,7.29
2023-04-09T02:34:46.118Z,7.26
2023-04-09T02:37:12.999Z,7.21
2023-04-09T02:39:39.874Z,7.16
2023-04-09T02:42:08.140Z,7.14
2023-04-09T02:44:35.675Z,7.08
2023-04-09T02:47:02.542Z,7.04
2023-04-09T02:49:29.491Z,7.02
2023-04-09T02:51:56.823Z,6.97
2023-04-09T02:54:23.742Z,6.95
2023-04-09T02:56:50.670Z,6.93
2023-04-09T02:59:18.334Z,6.90
2023-04-09T03:01:45.235Z,6.90
2023-04-09T03:04:12.237Z,6.89
2023-04-09T03:06:39.231Z,6.87
2023-04-09T03:09:06.111Z,6.85
2023-04-09T03:11:33.190Z,6.86
2023-04-09T03:14:00.162Z,6.85
2023-04-09T03:16:27.370Z,6.83
2023-04-09T03:18:54.520Z,6.83
2023-04-09T03:21:21.585Z,6.81
2023-04-09T03:23:48.850Z,6.77
2023-04-09T03:26:15.728Z,6.75
2023-04-09T03:28:42.627Z,6.72
2023-04-09T03:31:09.486Z,6.70
2023-04-09T03:33:36.487Z,6.64
2023-04-09T03:36:03.816Z,6.63
2023-04-09T03:38:30.999Z,6.58
2023-04-09T03:40:57.901Z,6.57
2023-04-09T03:43:25.196Z,6.49
2023-04-09T03:45:52.585Z,6.48
2023-04-09T03:48:19.631Z,6.43
2023-04-09T03:50:46.640Z,6.39
2023-04-09T03:53:13.492Z,6.38
2023-04-09T03:55:40.927Z,6.33
2023-04-09T03:58:07.927Z,6.32
2023-04-09T04:00:34.829Z,6.28
2023-04-09T04:03:02.067Z,6.24
2023-04-09T04:05:29.121Z,6.20
2023-04-09T04:07:56.204Z,6.12
2023-04-09T04:10:23.062Z,6.09
2023-04-09T04:12:50.012Z,6.05
2023-04-09T04:15:17.312Z,5.98
2023-04-09T04:17:44.183Z,5.93
2023-04-09T04:20:11.803Z,5.91
2023-04-09T04:22:38.662Z,5.87
2023-04-09T04:25:06.088Z,5.85
2023-04-09T04:27:33.313Z,5.83
2023-04-09T04:30:02.276Z,5.81
2023-04-09T04:32:29.678Z,5.79
2023-04-09T04:34:56.664Z,5.76
2023-04-09T04:37:23.526Z,5.74
2023-04-09T04:39:50.540Z,5.71
2023-04-09T04:42:17.892Z,5.71
2023-04-09T04:44:45.908Z,5.68
2023-04-09T04:47:12.812Z,5.65
2023-04-09T04:49:39.741Z,5.63
2023-04-09T04:52:07.831Z,5.60
2023-04-09T04:54:34.753Z,5.60
2023-04-09T04:57:02.235Z,5.58
2023-04-09T04:59:29.750Z,5.53
2023-04-09T05:01:56.832Z,5.51
2023-04-09T05:04:24.055Z,5.44
2023-04-09T05:06:50.996Z,5.45
2023-04-09T05:09:19.134Z,5.42
2023-04-09T05:11:47.461Z,5.41
2023-04-09T05:14:14.371Z,5.40
2023-04-09T05:16:41.760Z,5.36
2023-04-09T05:19:08.996Z,5.37
2023-04-09T05:21:35.837Z,5.34
2023-04-09T05:24:02.767Z,5.36
2023-04-09T05:26:30.108Z,5.35
2023-04-09T05:28:57.141Z,5.36
2023-04-09T05:31:24.350Z,5.36
2023-04-09T05:33:51.517Z,5.35
2023-04-09T05:36:19.682Z,5.34
2023-04-09T05:38:48.438Z,5.35
2023-04-09T05:41:16.383Z,5.34
2023-04-09T05:43:43.525Z,5.30
2023-04-09T05:46:10.505Z,5.27
2023-04-09T05:48:37.608Z,5.32
2023-04-09T05:51:04.984Z,5.37
2023-04-09T05:53:32.433Z,5.31
2023-04-09T05:55:59.520Z,5.36
2023-04-09T05:58:28.289Z,5.35
2023-04-09T06:00:55.527Z,5.38
2023-04-09T06:03:22.528Z,5.42
2023-04-09T06:05:49.628Z,5.45
2023-04-09T06:08:16.936Z,5.43
2023-04-09T06:10:43.840Z,5.50
2023-04-09T06:13:10.850Z,5.62
2023-04-09T06:15:40.810Z,5.76
2023-04-09T06:18:07.921Z,5.94
2023-04-09T06:20:34.967Z,6.11
2023-04-09T06:23:01.847Z,6.29
2023-04-09T06:25:31.651Z,6.39
2023-04-09T06:27:58.566Z,6.54
2023-04-09T06:30:26.131Z,6.74
2023-04-09T06:32:54.986Z,6.93
2023-04-09T06:35:22.586Z,7.13
2023-04-09T06:37:49.495Z,7.28
2023-04-09T06:40:16.936Z,7.44
2023-04-09T06:42:43.773Z,7.54
2023-04-09T06:45:10.869Z,7.64
2023-04-09T06:47:37.791Z,7.73
2023-04-09T06:50:05.590Z,7.80
2023-04-09T06:52:32.658Z,7.87
2023-04-09T06:54:59.583Z,7.86
2023-04-09T06:57:26.556Z,8.08
2023-04-09T06:59:53.612Z,8.20
2023-04-09T07:02:20.809Z,8.27
2023-04-09T07:04:48.225Z,8.27
2023-04-09T07:07:15.148Z,8.18
2023-04-09T07:09:43.267Z,8.20
2023-04-09T07:12:10.216Z,8.04
2023-04-09T07:14:37.075Z,7.84
2023-04-09T07:17:04.291Z,7.52
2023-04-09T07:19:31.368Z,7.56
2023-04-09T07:21:58.241Z,7.53
2023-04-09T07:24:25.702Z,7.46
2023-04-09T07:26:52.716Z,7.48
2023-04-09T07:29:21.328Z,7.50
2023-04-09T07:31:48.302Z,7.53
2023-04-09T07:34:15.202Z,7.64
2023-04-09T07:36:43.010Z,7.71
2023-04-09T07:39:10.170Z,7.85
2023-04-09T07:41:37.771Z,7.91
2023-04-09T07:44:06.543Z,8.02
2023-04-09T07:46:33.786Z,8.04
2023-04-09T07:49:00.956Z,8.05
2023-04-09T07:51:28.255Z,8.13
2023-04-09T07:53:55.203Z,8.16
2023-04-09T07:56:22.553Z,8.10
2023-04-09T07:58:51.065Z,8.28
2023-04-09T08:01:18.241Z,8.36
2023-04-09T08:03:45.763Z,8.50
2023-04-09T08:06:12.913Z,8.66
2023-04-09T08:08:40.236Z,8.92
2023-04-09T08:11:07.357Z,9.20
2023-04-09T08:13:34.414Z,9.48
2023-04-09T08:16:02.575Z,9.76
2023-04-09T08:18:29.844Z,9.96
2023-04-09T08:20:57.697Z,10.21
2023-04-09T08:23:24.852Z,10.34
2023-04-09T08:25:51.711Z,10.51
2023-04-09T08:28:18.651Z,10.69
2023-04-09T08:30:45.580Z,10.80
2023-04-09T08:33:12.557Z,10.97
2023-04-09T08:35:41.318Z,11.06
2023-04-09T08:38:08.394Z,11.22
2023-04-09T08:40:36.944Z,11.31
2023-04-09T08:43:09.144Z,11.32
2023-04-09T08:45:36.816Z,11.48
2023-04-09T08:48:04.344Z,11.45
2023-04-09T08:50:34.463Z,11.45
2023-04-09T08:53:04.165Z,11.52
2023-04-09T08:55:31.659Z,11.49
2023-04-09T08:57:58.805Z,11.41
2023-04-09T09:00:26.026Z,11.17
2023-04-09T09:03:13.368Z,11.12
2023-04-09T09:05:46.339Z,11.15
2023-04-09T09:08:25.262Z,11.18
2023-04-09T09:10:52.828Z,11.24
2023-04-09T09:13:24.387Z,11.38
2023-04-09T09:15:55.468Z,11.54
2023-04-09T09:18:43.917Z,11.68
2023-04-09T09:21:19.655Z,11.74
2023-04-09T09:23:48.569Z,11.83
2023-04-09T09:26:22.472Z,11.72
2023-04-09T09:28:50.242Z,11.80
2023-04-09T09:31:20.111Z,11.79
2023-04-09T09:33:48.578Z,11.82
2023-04-09T09:36:34.256Z,11.83
2023-04-09T09:39:10.338Z,11.97
2023-04-09T09:41:38.323Z,12.07
2023-04-09T09:44:07.461Z,11.99
2023-04-09T09:46:42.752Z,12.06
2023-04-09T09:49:09.978Z,12.02
2023-04-09T09:51:40.140Z,12.03
2023-04-09T09:54:10.440Z,12.06
2023-04-09T09:56:39.821Z,12.09
2023-04-09T09:59:15.774Z,12.21
2023-04-09T10:01:44.558Z,12.33
2023-04-09T10:04:15.348Z,12.52
2023-04-09T10:06:44.976Z,12.71
2023-04-09T10:09:12.666Z,12.80
2023-04-09T10:11:42.800Z,12.83
2023-04-09T10:14:10.551Z,12.87
2023-04-09T10:16:37.604Z,12.96
2023-04-09T10:19:05.448Z,13.06
2023-04-09T10:21:44.263Z,13.12
2023-04-09T10:24:11.956Z,13.11
2023-04-09T10:26:44.805Z,13.09
2023-04-09T10:29:17.138Z,13.13
2023-04-09T10:32:13.169Z,13.10
2023-04-09T10:34:41.653Z,13.16
2023-04-09T10:37:21.155Z,13.18
2023-04-09T10:39:50.115Z,13.12
2023-04-09T10:42:29.761Z,13.21
2023-04-09T10:45:15.128Z,13.20
2023-04-09T10:47:44.008Z,13.32
2023-04-09T10:50:25.676Z,13.39
2023-04-09T10:52:55.543Z,13.48
2023-04-09T10:55:41.382Z,13.43
2023-04-09T10:58:13.708Z,13.44
2023-04-09T11:00:48.642Z,13.39
2023-04-09T11:03:25.403Z,13.45
2023-04-09T11:06:07.358Z,13.50
2023-04-09T11:08:35.870Z,13.62
2023-04-09T11:11:03.791Z,13.70
2023-04-09T11:13:32.897Z,13.78
2023-04-09T11:16:01.657Z,13.97
2023-04-09T11:18:30.898Z,14.06
2023-04-09T11:21:04.391Z,14.11
2023-04-09T11:23:32.761Z,14.08
2023-04-09T11:25:59.684Z,14.14
2023-04-09T11:28:27.149Z,14.15
2023-04-09T11:30:54.218Z,14.25
2023-04-09T11:33:21.633Z,14.35
2023-04-09T11:35:49.065Z,14.44
2023-04-09T11:38:16.160Z,14.54
2023-04-09T11:40:49.265Z,14.65
2023-04-09T11:43:17.433Z,14.74
2023-04-09T11:45:44.849Z,14.85
2023-04-09T11:48:13.247Z,14.95
2023-04-09T11:50:40.865Z,15.05
2023-04-09T11:53:24.716Z,15.08
2023-04-09T11:55:53.526Z,15.12
2023-04-09T11:58:26.704Z,15.20
2023-04-09T12:00:59.100Z,15.26
2023-04-09T12:03:35.171Z,15.34
2023-04-09T12:06:03.659Z,15.37
2023-04-09T12:08:31.628Z,15.45
2023-04-09T12:11:09.961Z,15.46
2023-04-09T12:13:36.786Z,15.46
2023-04-09T12:16:03.871Z,15.48
2023-04-09T12:18:31.085Z,15.53
2023-04-09T12:20:57.951Z,15.51
2023-04-09T12:23:24.873Z,15.60
2023-04-09T12:25:51.783Z,15.59
2023-04-09T12:28:19.140Z,15.65
2023-04-09T12:30:46.929Z,15.75
2023-04-09T12:33:14.191Z,15.69
2023-04-09T12:35:41.205Z,15.69
2023-04-09T12:38:08.269Z,15.72
2023-04-09T12:40:38.954Z,15.76
2023-04-09T12:43:05.924Z,15.82
2023-04-09T12:45:33.544Z,15.89
2023-04-09T12:48:00.501Z,15.96
2023-04-09T12:50:28.568Z,16.04
2023-04-09T12:52:55.627Z,16.04
2023-04-09T12:55:23.067Z,16.07
2023-04-09T12:57:51.021Z,16.04
2023-04-09T13:00:18.100Z,16.02
2023-04-09T13:02:45.119Z,16.01
2023-04-09T13:05:12.386Z,16.03
2023-04-09T13:07:41.597Z,16.05
2023-04-09T13:10:10.323Z,16.03
2023-04-09T13:12:37.174Z,16.17
2023-04-09T13:15:04.406Z,16.23
2023-04-09T13:17:31.716Z,16.31
2023-04-09T13:19:58.619Z,16.40
2023-04-09T13:22:25.468Z,16.33
2023-04-09T13:24:52.954Z,16.43
2023-04-09T13:27:19.853Z,16.42
2023-04-09T13:29:46.810Z,16.40
2023-04-09T13:32:13.897Z,16.45
2023-04-09T13:34:41.021Z,16.49
2023-04-09T13:37:08.156Z,16.44
2023-04-09T13:39:35.364Z,16.50
2023-04-09T13:42:07.416Z,16.50
2023-04-09T13:44:37.279Z,16.51
2023-04-09T13:47:04.155Z,16.50
2023-04-09T13:49:31.239Z,16.40
2023-04-09T13:51:58.513Z,16.40
2023-04-09T13:54:25.367Z,16.44
2023-04-09T13:56:52.474Z,16.53
2023-04-09T13:59:19.432Z,16.51
2023-04-09T14:01:46.408Z,16.56
2023-04-09T14:04:13.682Z,16.50
2023-04-09T14:06:40.753Z,16.45
2023-04-09T14:09:07.926Z,16.32
2023-04-09T14:11:34.804Z,16.51
2023-04-09T14:14:01.702Z,16.42
2023-04-09T14:16:30.883Z,16.49
2023-04-09T14:18:58.435Z,16.40
2023-04-09T14:21:27.120Z,16.52
2023-04-09T14:23:54.060Z,16.50
2023-04-09T14:26:23.532Z,16.52
2023-04-09T14:28:52.220Z,16.54
2023-04-09T14:31:21.690Z,16.33
2023-04-09T14:33:49.464Z,16.36
2023-04-09T14:36:17.015Z,16.37
2023-04-09T14:38:44.115Z,16.30
2023-04-09T14:41:11.038Z,16.38
2023-04-09T14:43:38.249Z,16.30
2023-04-09T14:46:06.640Z,16.38
2023-04-09T14:48:33.653Z,16.35
2023-04-09T14:51:00.575Z,16.41
2023-04-09T14:53:27.559Z,16.36
2023-04-09T14:55:54.474Z,16.35
2023-04-09T14:58:21.743Z,16.40
2023-04-09T15:00:49.070Z,16.41
2023-04-09T15:03:16.387Z,16.36
2023-04-09T15:05:43.451Z,16.41
2023-04-09T15:08:10.491Z,16.32
2023-04-09T15:10:37.808Z,16.32
2023-04-09T15:13:04.743Z,16.24
2023-04-09T15:15:33.042Z,16.20
2023-04-09T15:18:05.958Z,16.11
2023-04-09T15:20:38.061Z,16.01
2023-04-09T15:23:05.020Z,16.02
2023-04-09T15:25:32.963Z,16.00
2023-04-09T15:27:59.870Z,16.01
2023-04-09T15:30:26.941Z,16.02
2023-04-09T15:32:54.030Z,15.96
2023-04-09T15:35:25.477Z,15.91
2023-04-09T15:37:52.892Z,15.90
2023-04-09T15:40:20.188Z,15.91
2023-04-09T15:42:47.341Z,15.88
2023-04-09T15:45:17.810Z,15.88
2023-04-09T15:47:46.451Z,15.86
2023-04-09T15:50:14.628Z,15.83
2023-04-09T15:52:41.766Z,15.78
2023-04-09T15:55:09.707Z,15.79
2023-04-09T15:57:36.711Z,15.78
2023-04-09T16:00:03.861Z,15.73
2023-04-09T16:02:31.221Z,15.74
2023-04-09T16:04:58.169Z,15.72
2023-04-09T16:07:25.069Z,15.78
2023-04-09T16:09:52.253Z,15.79
2023-04-09T16:12:19.150Z,15.81
2023-04-09T16:14:46.120Z,15.76
2023-04-09T16:17:13.041Z,15.72
2023-04-09T16:19:39.884Z,15.71
2023-04-09T16:22:07.619Z,15.72
2023-04-09T16:24:34.650Z,15.68
2023-04-09T16:27:01.886Z,15.64
2023-04-09T16:29:29.098Z,15.66
2023-04-09T16:31:58.022Z,15.67
2023-04-09T16:34:25.227Z,15.65
2023-04-09T16:36:52.151Z,15.63
2023-04-09T16:39:19.865Z,15.67
2023-04-09T16:41:46.790Z,15.61
2023-04-09T16:44:13.902Z,15.65
2023-04-09T16:46:41.035Z,15.63
2023-04-09T16:49:07.895Z,15.56
2023-04-09T16:51:35.170Z,15.63
2023-04-09T16:54:02.402Z,15.64
2023-04-09T16:56:29.416Z,15.50
2023-04-09T16:58:56.536Z,15.56
2023-04-09T17:01:23.488Z,15.58
2023-04-09T17:03:51.364Z,15.55
2023-04-09T17:06:18.335Z,15.46
2023-04-09T17:08:45.971Z,15.40
2023-04-09T17:11:17.286Z,15.43
2023-04-09T17:13:44.192Z,15.40
2023-04-09T17:16:12.087Z,15.29
2023-04-09T17:18:39.199Z,15.27
2023-04-09T17:21:07.012Z,15.22
2023-04-09T17:23:34.116Z,15.21
2023-04-09T17:26:01.879Z,15.17
2023-04-09T17:28:28.768Z,15.14
2023-04-09T17:30:55.939Z,15.13
2023-04-09T17:33:22.869Z,15.04
2023-04-09T17:35:49.752Z,15.02
2023-04-09T17:38:21.585Z,14.84
2023-04-09T17:40:49.047Z,14.82
2023-04-09T17:43:15.922Z,14.76
2023-04-09T17:45:42.835Z,14.71
2023-04-09T17:48:09.872Z,14.67
2023-04-09T17:50:39.722Z,14.62
2023-04-09T17:53:06.686Z,14.54
2023-04-09T17:55:33.828Z,14.53
2023-04-09T17:58:01.033Z,14.49
2023-04-09T18:00:28.119Z,14.43
2023-04-09T18:02:55.365Z,14.41
2023-04-09T18:05:23.309Z,14.38
2023-04-09T18:07:51.291Z,14.32
2023-04-09T18:10:18.696Z,14.24
2023-04-09T18:12:46.003Z,14.21
2023-04-09T18:15:13.380Z,14.18
2023-04-09T18:17:40.265Z,14.18
2023-04-09T18:20:07.887Z,14.16
2023-04-09T18:22:35.424Z,14.01
2023-04-09T18:25:02.549Z,14.02
2023-04-09T18:27:29.507Z,13.99
2023-04-09T18:29:56.712Z,13.95
2023-04-09T18:32:23.902Z,13.91
2023-04-09T18:34:52.326Z,13.87
2023-04-09T18:37:22.123Z,13.83
2023-04-09T18:39:49.004Z,13.72
2023-04-09T18:42:15.890Z,13.72
2023-04-09T18:44:42.835Z,13.63
2023-04-09T18:47:11.756Z,13.62
2023-04-09T18:49:38.621Z,13.58
2023-04-09T18:52:10.371Z,13.56
2023-04-09T18:54:37.527Z,13.55
2023-04-09T18:57:05.008Z,13.50
2023-04-09T18:59:35.253Z,13.45
2023-04-09T19:02:06.189Z,13.40
2023-04-09T19:04:40.092Z,13.40
2023-04-09T19:07:07.636Z,13.28
2023-04-09T19:09:34.954Z,13.31
2023-04-09T19:12:02.137Z,13.28
2023-04-09T19:14:29.150Z,13.26
2023-04-09T19:16:56.636Z,13.26
2023-04-09T19:19:23.801Z,13.26
2023-04-09T19:21:50.882Z,13.22
2023-04-09T19:24:17.746Z,13.22
2023-04-09T19:26:44.616Z,13.17
2023-04-09T19:29:11.727Z,13.09
2023-04-09T19:31:38.735Z,13.07
2023-04-09T19:34:06.441Z,13.11
2023-04-09T19:36:34.239Z,13.10
2023-04-09T19:39:01.421Z,13.00
2023-04-09T19:41:28.291Z,13.01
2023-04-09T19:43:55.452Z,12.97
2023-04-09T19:46:22.339Z,12.96
2023-04-09T19:48:49.542Z,12.96
2023-04-09T19:51:20.462Z,12.91
2023-04-09T19:53:48.212Z,12.92
2023-04-09T19:56:16.055Z,12.91
2023-04-09T19:58:44.047Z,12.85
2023-04-09T20:01:11.149Z,12.82
2023-04-09T20:03:38.598Z,12.79
2023-04-09T20:06:10.341Z,12.79
2023-04-09T20:08:41.883Z,12.79
2023-04-09T20:11:08.836Z,12.79
2023-04-09T20:13:35.872Z,12.77
2023-04-09T20:16:03.188Z,12.74
2023-04-09T20:18:30.099Z,12.74
2023-04-09T20:20:57.300Z,12.68
2023-04-09T20:23:24.178Z,12.68
2023-04-09T20:25:55.365Z,12.65
2023-04-09T20:28:22.345Z,12.61
2023-04-09T20:30:49.646Z,12.61
2023-04-09T20:33:18.279Z,12.56
2023-04-09T20:35:45.843Z,12.57
2023-04-09T20:38:12.816Z,12.52
2023-04-09T20:40:39.884Z,12.50
2023-04-09T20:43:06.750Z,12.52
2023-04-09T20:45:33.775Z,12.51
2023-04-09T20:48:01.413Z,12.49
2023-04-09T20:50:29.128Z,12.50
2023-04-09T20:52:56.331Z,12.46
2023-04-09T20:55:24.690Z,12.42
2023-04-09T20:57:52.185Z,12.38
2023-04-09T21:00:19.200Z,12.37
2023-04-09T21:02:46.329Z,12.38
2023-04-09T21:05:22.412Z,12.32
2023-04-09T21:07:50.296Z,12.29
2023-04-09T21:10:17.626Z,12.31
2023-04-09T21:12:44.525Z,12.30
2023-04-09T21:15:11.985Z,12.27
2023-04-09T21:17:38.932Z,12.28
2023-04-09T21:20:06.768Z,12.20
2023-04-09T21:22:35.100Z,12.24
2023-04-09T21:25:03.443Z,12.24
2023-04-09T21:27:30.660Z,12.15
2023-04-09T21:29:57.746Z,12.20
2023-04-09T21:32:25.492Z,12.20
2023-04-09T21:34:52.373Z,12.18
2023-04-09T21:37:19.276Z,12.14
2023-04-09T21:39:46.735Z,12.18
2023-04-09T21:42:13.550Z,12.13
2023-04-09T21:44:40.570Z,12.11
2023-04-09T21:47:09.194Z,12.12
2023-04-09T21:49:40.744Z,12.14
2023-04-09T21:52:14.641Z,12.05
2023-04-09T21:54:43.428Z,12.01
2023-04-09T21:57:11.121Z,11.99
2023-04-09T21:59:38.082Z,11.97
2023-04-09T22:02:05.542Z,11.94
2023-04-09T22:04:35.315Z,11.92
2023-04-09T22:07:02.908Z,11.84
2023-04-09T22:09:30.996Z,11.84
2023-04-09T22:11:58.702Z,11.77
2023-04-09T22:14:29.562Z,11.78
2023-04-09T22:16:58.567Z,11.74
2023-04-09T22:19:26.720Z,11.75
2023-04-09T22:21:54.203Z,11.68
2023-04-09T22:24:27.239Z,11.67
2023-04-09T22:26:54.275Z,11.64
2023-04-09T22:29:21.513Z,11.60
2023-04-09T22:31:48.395Z,11.58
2023-04-09T22:34:21.414Z,11.50
2023-04-09T22:36:49.342Z,11.53
2023-04-09T22:39:16.593Z,11.57
2023-04-09T22:41:43.861Z,11.51
2023-04-09T22:44:10.945Z,11.53
2023-04-09T22:46:37.878Z,11.53
2023-04-09T22:49:05.999Z,11.51
2023-04-09T22:51:34.944Z,11.50
2023-04-09T22:54:02.401Z,11.50
2023-04-09T22:56:31.974Z,11.48
2023-04-09T22:58:59.082Z,11.37
2023-04-09T23:01:27.609Z,11.38
2023-04-09T23:03:55.003Z,11.39
2023-04-09T23:06:23.012Z,11.35
2023-04-09T23:08:50.377Z,11.34
2023-04-09T23:11:17.337Z,11.35
2023-04-09T23:13:44.690Z,11.32
2023-04-09T23:16:11.632Z,11.27
2023-04-09T23:18:38.595Z,11.33
2023-04-09T23:21:07.811Z,11.24
2023-04-09T23:23:35.717Z,11.28
2023-04-09T23:26:02.947Z,11.24
2023-04-09T23:28:30.544Z,11.27
2023-04-09T23:30:57.888Z,11.24
2023-04-09T23:33:25.054Z,11.23
2023-04-09T23:35:51.982Z,11.21
2023-04-09T23:38:19.056Z,11.21
2023-04-09T23:40:47.577Z,11.20
2023-04-09T23:43:14.461Z,11.14
2023-04-09T23:45:41.357Z,11.09
2023-04-09T23:48:09.094Z,11.09
2023-04-09T23:50:40.848Z,11.12
2023-04-09T23:53:08.096Z,11.10
2023-04-09T23:55:38.661Z,11.07
2023-04-09T23:58:05.711Z,11.09
